sensor_id;sensor_type;location;lat;lon;timestamp;pressure;altitude;pressure_sealevel;temperature
64624;BMP280;51031;50.912;9.242;2022-10-03T00:00:05;99903.31;;;20.62
64624;BMP280;51031;50.912;9.242;2022-10-03T00:00:24;99901.63;;;20.61
64624;BMP280;51031;50.912;9.242;2022-10-03T00:01:04;99903.56;;;20.59
64624;BMP280;51031;50.912;9.242;2022-10-03T00:01:42;99895.72;;;20.57
64624;BMP280;51031;50.912;9.242;2022-10-03T00:02:11;99895.84;;;20.56
64624;BMP280;51031;50.912;9.242;2022-10-03T00:02:49;99904.69;;;20.57
64624;BMP280;51031;50.912;9.242;2022-10-03T00:03:29;99892.44;;;20.54
64624;BMP280;51031;50.912;9.242;2022-10-03T00:03:57;99898.50;;;20.56
64624;BMP280;51031;50.912;9.242;2022-10-03T00:05:24;99892.91;;;20.59
64624;BMP280;51031;50.912;9.242;2022-10-03T00:05:52;99891.97;;;20.60
64624;BMP280;51031;50.912;9.242;2022-10-03T00:06:13;99900.78;;;20.60
64624;BMP280;51031;50.912;9.242;2022-10-03T00:06:40;99891.97;;;20.60
64624;BMP280;51031;50.912;9.242;2022-10-03T00:07:04;99896.56;;;20.58
64624;BMP280;51031;50.912;9.242;2022-10-03T00:07:57;99895.84;;;20.56
64624;BMP280;51031;50.912;9.242;2022-10-03T00:08:31;99895.13;;;20.54
64624;BMP280;51031;50.912;9.242;2022-10-03T00:09:03;99885.50;;;20.52
64624;BMP280;51031;50.912;9.242;2022-10-03T00:09:47;99898.22;;;20.48
64624;BMP280;51031;50.912;9.242;2022-10-03T00:10:16;99891.22;;;20.47
64624;BMP280;51031;50.912;9.242;2022-10-03T00:10:39;99892.19;;;20.46
64624;BMP280;51031;50.912;9.242;2022-10-03T00:11:02;99901.03;;;20.47
64624;BMP280;51031;50.912;9.242;2022-10-03T00:11:26;99888.56;;;20.47
64624;BMP280;51031;50.912;9.242;2022-10-03T00:11:59;99902.72;;;20.48
64624;BMP280;51031;50.912;9.242;2022-10-03T00:12:48;99891.06;;;20.49
64624;BMP280;51031;50.912;9.242;2022-10-03T00:13:11;99892.66;;;20.51
64624;BMP280;51031;50.912;9.242;2022-10-03T00:13:38;99898.75;;;20.53
64624;BMP280;51031;50.912;9.242;2022-10-03T00:14:00;99895.13;;;20.54
64624;BMP280;51031;50.912;9.242;2022-10-03T00:14:21;99900.19;;;20.57
64624;BMP280;51031;50.912;9.242;2022-10-03T00:14:46;99896.56;;;20.58
64624;BMP280;51031;50.912;9.242;2022-10-03T00:15:10;99901.63;;;20.61
64624;BMP280;51031;50.912;9.242;2022-10-03T00:15:32;99890.84;;;20.62
64624;BMP280;51031;50.912;9.242;2022-10-03T00:16:01;99898.59;;;20.65
64624;BMP280;51031;50.912;9.242;2022-10-03T00:16:24;99897.50;;;20.68
64624;BMP280;51031;50.912;9.242;2022-10-03T00:16:47;99902.59;;;20.71
64624;BMP280;51031;50.912;9.242;2022-10-03T00:17:08;99898.94;;;20.72
64624;BMP280;51031;50.912;9.242;2022-10-03T00:17:37;99893.38;;;20.75
64624;BMP280;51031;50.912;9.242;2022-10-03T00:18:02;99899.44;;;20.77
64624;BMP280;51031;50.912;9.242;2022-10-03T00:18:33;99906.19;;;20.81
64624;BMP280;51031;50.912;9.242;2022-10-03T00:18:58;99898.91;;;20.83
64624;BMP280;51031;50.912;9.242;2022-10-03T00:19:26;99903.28;;;20.84
64624;BMP280;51031;50.912;9.242;2022-10-03T00:19:49;99903.00;;;20.86
64624;BMP280;51031;50.912;9.242;2022-10-03T00:20:31;99905.31;;;20.91
64624;BMP280;51031;50.912;9.242;2022-10-03T00:21:02;99907.84;;;20.92
64624;BMP280;51031;50.912;9.242;2022-10-03T00:21:34;99903.94;;;20.96
64624;BMP280;51031;50.912;9.242;2022-10-03T00:22:01;99902.84;;;20.99
64624;BMP280;51031;50.912;9.242;2022-10-03T00:22:26;99903.44;;;21.02
64624;BMP280;51031;50.912;9.242;2022-10-03T00:22:47;99898.84;;;21.04
64624;BMP280;51031;50.912;9.242;2022-10-03T00:23:10;99902.22;;;21.06
64624;BMP280;51031;50.912;9.242;2022-10-03T00:23:39;99904.63;;;21.09
64624;BMP280;51031;50.912;9.242;2022-10-03T00:24:03;99902.72;;;21.11
64624;BMP280;51031;50.912;9.242;2022-10-03T00:24:29;99897.22;;;21.12
64624;BMP280;51031;50.912;9.242;2022-10-03T00:25:01;99899.66;;;21.15
64624;BMP280;51031;50.912;9.242;2022-10-03T00:25:29;99892.38;;;21.17
64624;BMP280;51031;50.912;9.242;2022-10-03T00:25:54;99898.41;;;21.19
64624;BMP280;51031;50.912;9.242;2022-10-03T00:26:19;99903.63;;;21.21
64624;BMP280;51031;50.912;9.242;2022-10-03T00:26:48;99899.00;;;21.23
64624;BMP280;51031;50.912;9.242;2022-10-03T00:27:13;99903.34;;;21.24
64624;BMP280;51031;50.912;9.242;2022-10-03T00:27:35;99907.72;;;21.25
64624;BMP280;51031;50.912;9.242;2022-10-03T00:28:06;99906.75;;;21.26
64624;BMP280;51031;50.912;9.242;2022-10-03T00:28:49;99907.47;;;21.28
64624;BMP280;51031;50.912;9.242;2022-10-03T00:29:23;99909.16;;;21.29
64624;BMP280;51031;50.912;9.242;2022-10-03T00:30:00;99910.78;;;21.31
64624;BMP280;51031;50.912;9.242;2022-10-03T00:30:18;99911.63;;;21.32
64624;BMP280;51031;50.912;9.242;2022-10-03T00:30:48;99907.97;;;21.33
64624;BMP280;51031;50.912;9.242;2022-10-03T00:31:11;99907.97;;;21.33
64624;BMP280;51031;50.912;9.242;2022-10-03T00:31:37;99906.97;;;21.34
64624;BMP280;51031;50.912;9.242;2022-10-03T00:32:03;99909.66;;;21.34
64624;BMP280;51031;50.912;9.242;2022-10-03T00:32:35;99910.50;;;21.34
64624;BMP280;51031;50.912;9.242;2022-10-03T00:33:09;99906.03;;;21.35
64624;BMP280;51031;50.912;9.242;2022-10-03T00:33:37;99912.19;;;21.35
64624;BMP280;51031;50.912;9.242;2022-10-03T00:34:03;99903.22;;;21.36
64624;BMP280;51031;50.912;9.242;2022-10-03T00:34:29;99904.06;;;21.37
64624;BMP280;51031;50.912;9.242;2022-10-03T00:35:03;99912.91;;;21.37
64624;BMP280;51031;50.912;9.242;2022-10-03T00:35:32;99904.91;;;21.37
64624;BMP280;51031;50.912;9.242;2022-10-03T00:36:00;99913.78;;;21.38
64624;BMP280;51031;50.912;9.242;2022-10-03T00:36:22;99911.13;;;21.38
64624;BMP280;51031;50.912;9.242;2022-10-03T00:36:47;99919.94;;;21.38
64624;BMP280;51031;50.912;9.242;2022-10-03T00:37:21;99908.44;;;21.38
64624;BMP280;51031;50.912;9.242;2022-10-03T00:37:45;99909.41;;;21.37
64624;BMP280;51031;50.912;9.242;2022-10-03T00:38:45;99916.44;;;21.38
64624;BMP280;51031;50.912;9.242;2022-10-03T00:39:30;99909.41;;;21.37
64624;BMP280;51031;50.912;9.242;2022-10-03T00:40:00;99914.72;;;21.37
64624;BMP280;51031;50.912;9.242;2022-10-03T00:40:36;99911.38;;;21.35
64624;BMP280;51031;50.912;9.242;2022-10-03T00:41:10;99912.19;;;21.35
64624;BMP280;51031;50.912;9.242;2022-10-03T00:42:45;99910.63;;;21.33
64624;BMP280;51031;50.912;9.242;2022-10-03T00:43:24;99912.56;;;21.31
64624;BMP280;51031;50.912;9.242;2022-10-03T00:44:17;99912.81;;;21.28
64624;BMP280;51031;50.912;9.242;2022-10-03T00:45:42;99914.56;;;21.18
64624;BMP280;51031;50.912;9.242;2022-10-03T00:47:34;99925.97;;;21.09
64624;BMP280;51031;50.912;9.242;2022-10-03T00:48:07;99923.44;;;21.08
64624;BMP280;51031;50.912;9.242;2022-10-03T00:49:03;99923.53;;;21.06
64624;BMP280;51031;50.912;9.242;2022-10-03T00:49:52;99920.03;;;21.06
64624;BMP280;51031;50.912;9.242;2022-10-03T00:50:28;99915.69;;;21.05
64624;BMP280;51031;50.912;9.242;2022-10-03T00:50:57;99927.19;;;21.05
64624;BMP280;51031;50.912;9.242;2022-10-03T00:51:24;99919.19;;;21.05
64624;BMP280;51031;50.912;9.242;2022-10-03T00:51:53;99924.53;;;21.05
64624;BMP280;51031;50.912;9.242;2022-10-03T00:52:25;99923.53;;;21.06
64624;BMP280;51031;50.912;9.242;2022-10-03T00:53:04;99925.13;;;21.09
64624;BMP280;51031;50.912;9.242;2022-10-03T00:53:54;99921.47;;;21.10
64624;BMP280;51031;50.912;9.242;2022-10-03T00:54:24;99917.84;;;21.11
64624;BMP280;51031;50.912;9.242;2022-10-03T00:54:51;99925.72;;;21.12
64624;BMP280;51031;50.912;9.242;2022-10-03T00:55:17;99922.06;;;21.13
64624;BMP280;51031;50.912;9.242;2022-10-03T00:55:47;99920.25;;;21.13
64624;BMP280;51031;50.912;9.242;2022-10-03T00:57:11;99922.78;;;21.15
64624;BMP280;51031;50.912;9.242;2022-10-03T00:57:44;99923.63;;;21.15
64624;BMP280;51031;50.912;9.242;2022-10-03T00:58:16;99928.97;;;21.15
64624;BMP280;51031;50.912;9.242;2022-10-03T00:58:48;99920.97;;;21.15
64624;BMP280;51031;50.912;9.242;2022-10-03T00:59:26;99930.66;;;21.16
64624;BMP280;51031;50.912;9.242;2022-10-03T01:00:00;99928.81;;;21.17
64624;BMP280;51031;50.912;9.242;2022-10-03T01:00:20;99932.22;;;21.19
64624;BMP280;51031;50.912;9.242;2022-10-03T01:00:41;99930.41;;;21.19
64624;BMP280;51031;50.912;9.242;2022-10-03T01:01:20;99931.00;;;21.23
64624;BMP280;51031;50.912;9.242;2022-10-03T01:01:41;99931.00;;;21.23
64624;BMP280;51031;50.912;9.242;2022-10-03T01:02:18;99924.69;;;21.24
64624;BMP280;51031;50.912;9.242;2022-10-03T01:02:46;99933.41;;;21.26
64624;BMP280;51031;50.912;9.242;2022-10-03T01:03:12;99929.75;;;21.27
64624;BMP280;51031;50.912;9.242;2022-10-03T01:03:40;99922.50;;;21.29
64624;BMP280;51031;50.912;9.242;2022-10-03T01:04:20;99933.16;;;21.29
64624;BMP280;51031;50.912;9.242;2022-10-03T01:04:46;99925.91;;;21.31
64624;BMP280;51031;50.912;9.242;2022-10-03T01:05:13;99924.09;;;21.31
64624;BMP280;51031;50.912;9.242;2022-10-03T01:05:38;99935.59;;;21.32
64624;BMP280;51031;50.912;9.242;2022-10-03T01:06:09;99931.97;;;21.33
64624;BMP280;51031;50.912;9.242;2022-10-03T01:06:33;99932.69;;;21.35
64624;BMP280;51031;50.912;9.242;2022-10-03T01:07:03;99928.19;;;21.35
64624;BMP280;51031;50.912;9.242;2022-10-03T01:07:42;99923.72;;;21.36
64624;BMP280;51031;50.912;9.242;2022-10-03T01:08:34;99925.38;;;21.37
64624;BMP280;51031;50.912;9.242;2022-10-03T01:09:10;99927.09;;;21.38
64624;BMP280;51031;50.912;9.242;2022-10-03T01:09:45;99931.56;;;21.37
64624;BMP280;51031;50.912;9.242;2022-10-03T01:10:12;99928.78;;;21.39
64624;BMP280;51031;50.912;9.242;2022-10-03T01:10:33;99936.78;;;21.39
64624;BMP280;51031;50.912;9.242;2022-10-03T01:10:58;99927.94;;;21.38
64624;BMP280;51031;50.912;9.242;2022-10-03T01:11:28;99929.50;;;21.40
64624;BMP280;51031;50.912;9.242;2022-10-03T01:12:00;99928.53;;;21.41
64624;BMP280;51031;50.912;9.242;2022-10-03T01:12:29;99923.22;;;21.41
64624;BMP280;51031;50.912;9.242;2022-10-03T01:13:00;99928.41;;;21.43
64624;BMP280;51031;50.912;9.242;2022-10-03T01:13:32;99929.25;;;21.43
64624;BMP280;51031;50.912;9.242;2022-10-03T01:13:59;99933.63;;;21.44
64624;BMP280;51031;50.912;9.242;2022-10-03T01:14:25;99926.56;;;21.43
64624;BMP280;51031;50.912;9.242;2022-10-03T01:15:07;99923.91;;;21.43
64624;BMP280;51031;50.912;9.242;2022-10-03T01:15:35;99923.91;;;21.43
64624;BMP280;51031;50.912;9.242;2022-10-03T01:16:00;99923.91;;;21.43
64624;BMP280;51031;50.912;9.242;2022-10-03T01:16:29;99928.28;;;21.44
64624;BMP280;51031;50.912;9.242;2022-10-03T01:17:00;99927.31;;;21.45
64624;BMP280;51031;50.912;9.242;2022-10-03T01:17:24;99927.31;;;21.45
64624;BMP280;51031;50.912;9.242;2022-10-03T01:17:57;99924.63;;;21.45
64624;BMP280;51031;50.912;9.242;2022-10-03T01:18:23;99920.97;;;21.46
64624;BMP280;51031;50.912;9.242;2022-10-03T01:18:53;99921.81;;;21.47
64624;BMP280;51031;50.912;9.242;2022-10-03T01:19:29;99925.34;;;21.47
64624;BMP280;51031;50.912;9.242;2022-10-03T01:19:58;99923.53;;;21.48
64624;BMP280;51031;50.912;9.242;2022-10-03T01:20:31;99921.72;;;21.48
64624;BMP280;51031;50.912;9.242;2022-10-03T01:20:57;99913.72;;;21.48
64624;BMP280;51031;50.912;9.242;2022-10-03T01:21:27;99923.41;;;21.49
64624;BMP280;51031;50.912;9.242;2022-10-03T01:21:58;99933.06;;;21.50
64624;BMP280;51031;50.912;9.242;2022-10-03T01:22:43;99919.75;;;21.50
64624;BMP280;51031;50.912;9.242;2022-10-03T01:24:39;99923.00;;;21.54
64624;BMP280;51031;50.912;9.242;2022-10-03T01:25:10;99929.19;;;21.54
64624;BMP280;51031;50.912;9.242;2022-10-03T01:25:37;99931.00;;;21.54
64624;BMP280;51031;50.912;9.242;2022-10-03T01:26:04;99927.50;;;21.53
64624;BMP280;51031;50.912;9.242;2022-10-03T01:26:44;99923.16;;;21.52
64624;BMP280;51031;50.912;9.242;2022-10-03T01:27:05;99922.31;;;21.52
64624;BMP280;51031;50.912;9.242;2022-10-03T01:27:32;99926.91;;;21.50
64624;BMP280;51031;50.912;9.242;2022-10-03T01:28:39;99924.13;;;21.51
64624;BMP280;51031;50.912;9.242;2022-10-03T01:29:17;99929.47;;;21.51
64624;BMP280;51031;50.912;9.242;2022-10-03T01:29:56;99927.03;;;21.48
64624;BMP280;51031;50.912;9.242;2022-10-03T01:30:37;99925.22;;;21.49
64624;BMP280;51031;50.912;9.242;2022-10-03T01:30:57;99926.06;;;21.49
64624;BMP280;51031;50.912;9.242;2022-10-03T01:31:17;99922.56;;;21.49
64624;BMP280;51031;50.912;9.242;2022-10-03T01:31:41;99929.72;;;21.48
64624;BMP280;51031;50.912;9.242;2022-10-03T01:32:03;99920.88;;;21.48
64624;BMP280;51031;50.912;9.242;2022-10-03T01:32:25;99923.53;;;21.48
64624;BMP280;51031;50.912;9.242;2022-10-03T01:32:47;99920.00;;;21.47
64624;BMP280;51031;50.912;9.242;2022-10-03T01:33:10;99924.50;;;21.47
64624;BMP280;51031;50.912;9.242;2022-10-03T01:33:31;99929.81;;;21.47
64624;BMP280;51031;50.912;9.242;2022-10-03T01:33:57;99927.31;;;21.45
64624;BMP280;51031;50.912;9.242;2022-10-03T01:34:23;99931.91;;;21.43
64624;BMP280;51031;50.912;9.242;2022-10-03T01:34:45;99926.72;;;21.42
64624;BMP280;51031;50.912;9.242;2022-10-03T01:35:13;99930.47;;;21.40
64624;BMP280;51031;50.912;9.242;2022-10-03T01:35:42;99929.78;;;21.38
64624;BMP280;51031;50.912;9.242;2022-10-03T01:36:09;99933.53;;;21.35
64624;BMP280;51031;50.912;9.242;2022-10-03T01:36:31;99929.28;;;21.33
64624;BMP280;51031;50.912;9.242;2022-10-03T01:36:59;99939.97;;;21.33
64624;BMP280;51031;50.912;9.242;2022-10-03T01:37:25;99942.75;;;21.31
64624;BMP280;51031;50.912;9.242;2022-10-03T01:37:50;99939.22;;;21.31
64624;BMP280;51031;50.912;9.242;2022-10-03T01:38:15;99938.38;;;21.30
64624;BMP280;51031;50.912;9.242;2022-10-03T01:38:42;99943.72;;;21.30
64624;BMP280;51031;50.912;9.242;2022-10-03T01:39:06;99934.88;;;21.30
64624;BMP280;51031;50.912;9.242;2022-10-03T01:39:28;99941.88;;;21.31
64624;BMP280;51031;50.912;9.242;2022-10-03T01:39:49;99943.59;;;21.32
64624;BMP280;51031;50.912;9.242;2022-10-03T01:40:15;99941.88;;;21.31
64624;BMP280;51031;50.912;9.242;2022-10-03T01:40:36;99943.59;;;21.32
64624;BMP280;51031;50.912;9.242;2022-10-03T01:40:57;99943.59;;;21.32
64624;BMP280;51031;50.912;9.242;2022-10-03T01:41:25;99939.13;;;21.32
64624;BMP280;51031;50.912;9.242;2022-10-03T01:41:49;99941.63;;;21.34
64624;BMP280;51031;50.912;9.242;2022-10-03T01:42:09;99944.31;;;21.34
64624;BMP280;51031;50.912;9.242;2022-10-03T01:42:36;99942.47;;;21.34
64624;BMP280;51031;50.912;9.242;2022-10-03T01:43:08;99933.53;;;21.35
64624;BMP280;51031;50.912;9.242;2022-10-03T01:43:33;99935.22;;;21.36
64624;BMP280;51031;50.912;9.242;2022-10-03T01:43:54;99936.06;;;21.37
64624;BMP280;51031;50.912;9.242;2022-10-03T01:44:20;99951.09;;;21.38
64624;BMP280;51031;50.912;9.242;2022-10-03T01:44:46;99934.38;;;21.36
64624;BMP280;51031;50.912;9.242;2022-10-03T01:45:20;99927.63;;;21.32
64624;BMP280;51031;50.912;9.242;2022-10-03T01:45:47;99936.81;;;21.28
64624;BMP280;51031;50.912;9.242;2022-10-03T01:46:11;99938.00;;;21.24
64624;BMP280;51031;50.912;9.242;2022-10-03T01:46:36;99942.75;;;21.20
64624;BMP280;51031;50.912;9.242;2022-10-03T01:47:03;99937.56;;;21.19
64624;BMP280;51031;50.912;9.242;2022-10-03T01:47:24;99944.81;;;21.17
64624;BMP280;51031;50.912;9.242;2022-10-03T01:47:46;99941.47;;;21.15
64624;BMP280;51031;50.912;9.242;2022-10-03T01:48:10;99943.38;;;21.13
64624;BMP280;51031;50.912;9.242;2022-10-03T01:48:33;99944.38;;;21.12
64624;BMP280;51031;50.912;9.242;2022-10-03T01:48:57;99948.00;;;21.11
64624;BMP280;51031;50.912;9.242;2022-10-03T01:49:16;99948.97;;;21.10
64624;BMP280;51031;50.912;9.242;2022-10-03T01:49:38;99952.59;;;21.09
64624;BMP280;51031;50.912;9.242;2022-10-03T01:50:03;99951.91;;;21.07
64624;BMP280;51031;50.912;9.242;2022-10-03T01:50:28;99949.25;;;21.07
64624;BMP280;51031;50.912;9.242;2022-10-03T01:50:51;99947.53;;;21.06
64624;BMP280;51031;50.912;9.242;2022-10-03T01:51:15;99952.84;;;21.06
64624;BMP280;51031;50.912;9.242;2022-10-03T01:51:41;99957.34;;;21.06
64624;BMP280;51031;50.912;9.242;2022-10-03T01:52:03;99958.19;;;21.06
64624;BMP280;51031;50.912;9.242;2022-10-03T01:52:32;99958.19;;;21.06
64624;BMP280;51031;50.912;9.242;2022-10-03T01:52:57;99959.91;;;21.07
64624;BMP280;51031;50.912;9.242;2022-10-03T01:53:24;99954.44;;;21.09
64624;BMP280;51031;50.912;9.242;2022-10-03T01:53:57;99961.44;;;21.10
64624;BMP280;51031;50.912;9.242;2022-10-03T01:54:21;99955.16;;;21.11
64624;BMP280;51031;50.912;9.242;2022-10-03T01:54:49;99956.84;;;21.12
64624;BMP280;51031;50.912;9.242;2022-10-03T01:55:20;99958.44;;;21.14
64624;BMP280;51031;50.912;9.242;2022-10-03T01:55:52;99955.75;;;21.14
64624;BMP280;51031;50.912;9.242;2022-10-03T01:56:17;99952.97;;;21.15
64624;BMP280;51031;50.912;9.242;2022-10-03T01:56:39;99961.69;;;21.17
64624;BMP280;51031;50.912;9.242;2022-10-03T01:57:02;99970.38;;;21.19
64624;BMP280;51031;50.912;9.242;2022-10-03T01:57:28;99970.28;;;21.21
64624;BMP280;51031;50.912;9.242;2022-10-03T01:57:54;99967.47;;;21.22
64624;BMP280;51031;50.912;9.242;2022-10-03T01:58:22;99965.66;;;21.23
64624;BMP280;51031;50.912;9.242;2022-10-03T01:58:50;99962.00;;;21.24
64624;BMP280;51031;50.912;9.242;2022-10-03T01:59:13;99962.00;;;21.24
64624;BMP280;51031;50.912;9.242;2022-10-03T01:59:40;99966.38;;;21.25
64624;BMP280;51031;50.912;9.242;2022-10-03T02:00:03;99965.41;;;21.26
64624;BMP280;51031;50.912;9.242;2022-10-03T02:00:30;99956.41;;;21.27
64624;BMP280;51031;50.912;9.242;2022-10-03T02:00:52;99961.75;;;21.27
64624;BMP280;51031;50.912;9.242;2022-10-03T02:01:14;99957.25;;;21.27
64624;BMP280;51031;50.912;9.242;2022-10-03T02:01:38;99960.81;;;21.28
64624;BMP280;51031;50.912;9.242;2022-10-03T02:02:04;99962.50;;;21.29
64624;BMP280;51031;50.912;9.242;2022-10-03T02:02:27;99963.22;;;21.31
64624;BMP280;51031;50.912;9.242;2022-10-03T02:02:48;99960.66;;;21.29
64624;BMP280;51031;50.912;9.242;2022-10-03T02:03:10;99958.88;;;21.30
64624;BMP280;51031;50.912;9.242;2022-10-03T02:03:34;99966.00;;;21.29
64624;BMP280;51031;50.912;9.242;2022-10-03T02:03:56;99970.47;;;21.29
64624;BMP280;51031;50.912;9.242;2022-10-03T02:04:27;99970.47;;;21.29
64624;BMP280;51031;50.912;9.242;2022-10-03T02:04:50;99970.47;;;21.29
64624;BMP280;51031;50.912;9.242;2022-10-03T02:05:11;99965.16;;;21.29
64624;BMP280;51031;50.912;9.242;2022-10-03T02:05:37;99970.47;;;21.29
64624;BMP280;51031;50.912;9.242;2022-10-03T02:05:59;99966.88;;;21.30
64624;BMP280;51031;50.912;9.242;2022-10-03T02:06:21;99973.88;;;21.31
64624;BMP280;51031;50.912;9.242;2022-10-03T02:06:46;99969.44;;;21.31
64624;BMP280;51031;50.912;9.242;2022-10-03T02:07:11;99967.59;;;21.32
64624;BMP280;51031;50.912;9.242;2022-10-03T02:07:42;99964.78;;;21.33
64624;BMP280;51031;50.912;9.242;2022-10-03T02:08:04;99969.16;;;21.34
64624;BMP280;51031;50.912;9.242;2022-10-03T02:08:27;99972.69;;;21.35
64624;BMP280;51031;50.912;9.242;2022-10-03T02:08:54;99968.06;;;21.37
64624;BMP280;51031;50.912;9.242;2022-10-03T02:09:24;99968.91;;;21.37
64624;BMP280;51031;50.912;9.242;2022-10-03T02:09:50;99968.78;;;21.39
64624;BMP280;51031;50.912;9.242;2022-10-03T02:10:18;99971.31;;;21.40
64624;BMP280;51031;50.912;9.242;2022-10-03T02:10:41;99973.88;;;21.41
64624;BMP280;51031;50.912;9.242;2022-10-03T02:11:02;99972.88;;;21.42
64624;BMP280;51031;50.912;9.242;2022-10-03T02:11:28;99970.22;;;21.42
64624;BMP280;51031;50.912;9.242;2022-10-03T02:11:57;99977.97;;;21.45
64624;BMP280;51031;50.912;9.242;2022-10-03T02:12:24;99964.50;;;21.47
64624;BMP280;51031;50.912;9.242;2022-10-03T02:12:49;99972.50;;;21.47
64624;BMP280;51031;50.912;9.242;2022-10-03T02:13:12;99967.06;;;21.48
64624;BMP280;51031;50.912;9.242;2022-10-03T02:13:39;99974.91;;;21.50
64624;BMP280;51031;50.912;9.242;2022-10-03T02:13:58;99976.47;;;21.52
64624;BMP280;51031;50.912;9.242;2022-10-03T02:14:29;99980.84;;;21.53
64624;BMP280;51031;50.912;9.242;2022-10-03T02:14:51;99967.50;;;21.53
64624;BMP280;51031;50.912;9.242;2022-10-03T02:15:14;99976.34;;;21.54
64624;BMP280;51031;50.912;9.242;2022-10-03T02:15:40;99978.06;;;21.55
64624;BMP280;51031;50.912;9.242;2022-10-03T02:16:04;99983.25;;;21.56
64624;BMP280;51031;50.912;9.242;2022-10-03T02:16:30;99982.25;;;21.57
64624;BMP280;51031;50.912;9.242;2022-10-03T02:16:55;99978.50;;;21.60
64624;BMP280;51031;50.912;9.242;2022-10-03T02:17:23;99985.66;;;21.59
64624;BMP280;51031;50.912;9.242;2022-10-03T02:17:50;99975.69;;;21.61
64624;BMP280;51031;50.912;9.242;2022-10-03T02:18:13;99974.75;;;21.62
64624;BMP280;51031;50.912;9.242;2022-10-03T02:18:38;99974.75;;;21.62
64624;BMP280;51031;50.912;9.242;2022-10-03T02:19:05;99976.28;;;21.65
64624;BMP280;51031;50.912;9.242;2022-10-03T02:19:29;99976.16;;;21.66
64624;BMP280;51031;50.912;9.242;2022-10-03T02:19:56;99976.16;;;21.66
64624;BMP280;51031;50.912;9.242;2022-10-03T02:20:22;99969.75;;;21.68
64624;BMP280;51031;50.912;9.242;2022-10-03T02:20:44;99981.25;;;21.69
64624;BMP280;51031;50.912;9.242;2022-10-03T02:21:09;99980.28;;;21.70
64624;BMP280;51031;50.912;9.242;2022-10-03T02:21:29;99978.44;;;21.70
64624;BMP280;51031;50.912;9.242;2022-10-03T02:21:48;99975.66;;;21.72
64624;BMP280;51031;50.912;9.242;2022-10-03T02:22:13;99982.69;;;21.73
64624;BMP280;51031;50.912;9.242;2022-10-03T02:22:33;99978.19;;;21.73
64624;BMP280;51031;50.912;9.242;2022-10-03T02:22:53;99979.03;;;21.74
64624;BMP280;51031;50.912;9.242;2022-10-03T02:23:23;99973.69;;;21.74
64624;BMP280;51031;50.912;9.242;2022-10-03T02:23:42;99980.72;;;21.75
64624;BMP280;51031;50.912;9.242;2022-10-03T02:24:18;99977.09;;;21.76
64624;BMP280;51031;50.912;9.242;2022-10-03T02:24:44;99983.28;;;21.76
64624;BMP280;51031;50.912;9.242;2022-10-03T02:25:23;99973.44;;;21.77
64624;BMP280;51031;50.912;9.242;2022-10-03T02:25:52;99980.59;;;21.76
64624;BMP280;51031;50.912;9.242;2022-10-03T02:26:51;99977.09;;;21.76
64624;BMP280;51031;50.912;9.242;2022-10-03T02:27:43;99983.28;;;21.76
64624;BMP280;51031;50.912;9.242;2022-10-03T02:29:01;99978.19;;;21.73
64624;BMP280;51031;50.912;9.242;2022-10-03T02:29:50;99980.13;;;21.71
64624;BMP280;51031;50.912;9.242;2022-10-03T02:30:14;99976.63;;;21.71
64624;BMP280;51031;50.912;9.242;2022-10-03T02:30:45;99981.25;;;21.69
64624;BMP280;51031;50.912;9.242;2022-10-03T02:31:20;99978.59;;;21.69
64624;BMP280;51031;50.912;9.242;2022-10-03T02:32:07;99977.00;;;21.67
64624;BMP280;51031;50.912;9.242;2022-10-03T02:32:52;99979.81;;;21.65
64624;BMP280;51031;50.912;9.242;2022-10-03T02:33:41;99983.44;;;21.64
64624;BMP280;51031;50.912;9.242;2022-10-03T02:34:23;99984.44;;;21.63
64624;BMP280;51031;50.912;9.242;2022-10-03T02:34:51;99980.19;;;21.61
64624;BMP280;51031;50.912;9.242;2022-10-03T02:35:25;99987.34;;;21.60
64624;BMP280;51031;50.912;9.242;2022-10-03T02:36:01;99987.59;;;21.57
64624;BMP280;51031;50.912;9.242;2022-10-03T02:37:44;99993.19;;;21.54
64624;BMP280;51031;50.912;9.242;2022-10-03T02:38:24;99994.31;;;21.52
64624;BMP280;51031;50.912;9.242;2022-10-03T02:40:10;99996.38;;;21.48
64624;BMP280;51031;50.912;9.242;2022-10-03T02:40:45;99997.34;;;21.47
64624;BMP280;51031;50.912;9.242;2022-10-03T02:41:15;99993.81;;;21.47
64624;BMP280;51031;50.912;9.242;2022-10-03T02:42:15;99997.34;;;21.47
64624;BMP280;51031;50.912;9.242;2022-10-03T02:47:51;100004.72;;;21.55
64624;BMP280;51031;50.912;9.242;2022-10-03T02:48:40;100003.59;;;21.57
64624;BMP280;51031;50.912;9.242;2022-10-03T02:49:42;100008.69;;;21.60
64624;BMP280;51031;50.912;9.242;2022-10-03T02:50:22;100002.25;;;21.63
64624;BMP280;51031;50.912;9.242;2022-10-03T02:51:10;99997.75;;;21.63
64624;BMP280;51031;50.912;9.242;2022-10-03T02:52:03;100000.28;;;21.65
64624;BMP280;51031;50.912;9.242;2022-10-03T02:52:52;100002.84;;;21.66
64624;BMP280;51031;50.912;9.242;2022-10-03T02:53:47;99995.53;;;21.68
64624;BMP280;51031;50.912;9.242;2022-10-03T02:54:52;99995.44;;;21.69
64624;BMP280;51031;50.912;9.242;2022-10-03T02:55:38;99993.59;;;21.70
64624;BMP280;51031;50.912;9.242;2022-10-03T02:56:32;100007.69;;;21.72
64624;BMP280;51031;50.912;9.242;2022-10-03T02:58:11;100002.94;;;21.75
64624;BMP280;51031;50.912;9.242;2022-10-03T02:58:47;100005.47;;;21.77
64624;BMP280;51031;50.912;9.242;2022-10-03T02:59:37;100004.47;;;21.78
64624;BMP280;51031;50.912;9.242;2022-10-03T03:00:08;100002.53;;;21.80
64624;BMP280;51031;50.912;9.242;2022-10-03T03:00:33;100002.53;;;21.80
64624;BMP280;51031;50.912;9.242;2022-10-03T03:02:02;100000.47;;;21.83
64624;BMP280;51031;50.912;9.242;2022-10-03T03:02:58;100001.28;;;21.84
64624;BMP280;51031;50.912;9.242;2022-10-03T03:03:34;99998.63;;;21.84
64624;BMP280;51031;50.912;9.242;2022-10-03T03:04:13;99997.66;;;21.85
64624;BMP280;51031;50.912;9.242;2022-10-03T03:05:57;100001.03;;;21.87
64624;BMP280;51031;50.912;9.242;2022-10-03T03:06:37;100004.56;;;21.87
64624;BMP280;51031;50.912;9.242;2022-10-03T03:07:13;100006.38;;;21.87
64624;BMP280;51031;50.912;9.242;2022-10-03T03:07:48;100015.13;;;21.89
64624;BMP280;51031;50.912;9.242;2022-10-03T03:08:27;100007.09;;;21.89
64624;BMP280;51031;50.912;9.242;2022-10-03T03:08:57;100010.63;;;21.89
64624;BMP280;51031;50.912;9.242;2022-10-03T03:10:32;100002.47;;;21.91
64624;BMP280;51031;50.912;9.242;2022-10-03T03:11:16;99997.13;;;21.91
64624;BMP280;51031;50.912;9.242;2022-10-03T03:12:01;100011.31;;;21.91